RYR70QD LOWW-EBCI
Flight info
| Callsign | RYR70QD |
|---|---|
| Flight time | 1h 17m |
| Altitude | 36000 |
| Route | MEDIX2B/16 MEDIX DCT LAMSI DCT MOOCE DCT TEKTU DCT TESGA DCT UMUPU T880 BATTY |
| Aircraft | A320/M-SDE2FGHIJ1RWY/SB1 |
Departure
| Time | 2026-05-05 17:37 |
|---|---|
| Airport | Vienna International Airport (LOWW) |
Arrival
| Time | 2026-05-05 18:54 |
|---|---|
| Airport | Brussels South Charleroi Airport (EBCI) |
| Time | Latitude | Longitude | Altitude | Speed | Heading |
|---|---|---|---|---|---|
| 2026-05-05 17:11 | 48.11955 | 16.55592 | 621 ft | 0 kts | 64° |
| 2026-05-05 17:25 | 48.11954 | 16.55590 | 623 ft | 2 kts | 64° |
| 2026-05-05 17:26 | 48.11946 | 16.55555 | 625 ft | 4 kts | 84° |
| 2026-05-05 17:26 | 48.11946 | 16.55530 | 622 ft | 4 kts | 108° |
| 2026-05-05 17:26 | 48.11959 | 16.55499 | 625 ft | 4 kts | 149° |
| 2026-05-05 17:26 | 48.11983 | 16.55489 | 615 ft | 4 kts | 194° |
| 2026-05-05 17:27 | 48.11990 | 16.55492 | 617 ft | 0 kts | 206° |
| 2026-05-05 17:30 | 48.11977 | 16.55482 | 612 ft | 6 kts | 206° |
| 2026-05-05 17:30 | 48.11925 | 16.55445 | 617 ft | 10 kts | 204° |
| 2026-05-05 17:31 | 48.11875 | 16.55508 | 615 ft | 13 kts | 115° |
| 2026-05-05 17:31 | 48.11827 | 16.55660 | 621 ft | 18 kts | 116° |
| 2026-05-05 17:31 | 48.11769 | 16.55838 | 620 ft | 20 kts | 116° |
| 2026-05-05 17:31 | 48.11708 | 16.56027 | 614 ft | 21 kts | 116° |
| 2026-05-05 17:32 | 48.11643 | 16.56225 | 617 ft | 22 kts | 116° |
| 2026-05-05 17:32 | 48.11575 | 16.56432 | 612 ft | 23 kts | 115° |
| 2026-05-05 17:32 | 48.11505 | 16.56649 | 612 ft | 24 kts | 116° |
| 2026-05-05 17:32 | 48.11431 | 16.56873 | 610 ft | 24 kts | 116° |
| 2026-05-05 17:33 | 48.11355 | 16.57106 | 616 ft | 25 kts | 115° |
| 2026-05-05 17:33 | 48.11303 | 16.57300 | 613 ft | 17 kts | 86° |
| 2026-05-05 17:33 | 48.11407 | 16.57397 | 618 ft | 21 kts | 26° |
| 2026-05-05 17:33 | 48.11563 | 16.57451 | 613 ft | 25 kts | 343° |
| 2026-05-05 17:34 | 48.11735 | 16.57376 | 613 ft | 26 kts | 344° |
| 2026-05-05 17:34 | 48.11903 | 16.57304 | 615 ft | 21 kts | 345° |
| 2026-05-05 17:34 | 48.11990 | 16.57340 | 610 ft | 15 kts | 70° |
| 2026-05-05 17:34 | 48.12011 | 16.57497 | 610 ft | 16 kts | 95° |
| 2026-05-05 17:35 | 48.11982 | 16.57670 | 610 ft | 18 kts | 104° |
| 2026-05-05 17:35 | 48.11946 | 16.57829 | 618 ft | 10 kts | 132° |
| 2026-05-05 17:35 | 48.11915 | 16.57846 | 617 ft | 0 kts | 164° |
| 2026-05-05 17:36 | 48.11881 | 16.57859 | 617 ft | 21 kts | 164° |
| 2026-05-05 17:36 | 48.11517 | 16.58013 | 618 ft | 85 kts | 164° |
| 2026-05-05 17:36 | 48.10784 | 16.58323 | 612 ft | 132 kts | 164° |
| 2026-05-05 17:36 | 48.09847 | 16.58728 | 1025 ft | 138 kts | 165° |
| 2026-05-05 17:37 | 48.08915 | 16.59119 | 1628 ft | 139 kts | 167° |
| 2026-05-05 17:37 | 48.07950 | 16.59514 | 2051 ft | 153 kts | 168° |
| 2026-05-05 17:37 | 48.06847 | 16.59942 | 2319 ft | 175 kts | 174° |
| 2026-05-05 17:37 | 48.05593 | 16.59691 | 2600 ft | 197 kts | 207° |
| 2026-05-05 17:38 | 48.04508 | 16.58245 | 2997 ft | 223 kts | 225° |
| 2026-05-05 17:38 | 48.03456 | 16.56458 | 3711 ft | 233 kts | 226° |
| 2026-05-05 17:38 | 48.02608 | 16.54361 | 4511 ft | 246 kts | 252° |
| 2026-05-05 17:38 | 48.02490 | 16.51745 | 5304 ft | 257 kts | 265° |
| 2026-05-05 17:39 | 48.02526 | 16.49055 | 6167 ft | 263 kts | 271° |
| 2026-05-05 17:39 | 48.02999 | 16.46356 | 6958 ft | 273 kts | 283° |
| 2026-05-05 17:39 | 48.03616 | 16.43651 | 7749 ft | 277 kts | 283° |
| 2026-05-05 17:39 | 48.04251 | 16.40914 | 8576 ft | 280 kts | 284° |
| 2026-05-05 17:40 | 48.04892 | 16.38159 | 9434 ft | 282 kts | 283° |
| 2026-05-05 17:40 | 48.05539 | 16.35379 | 10173 ft | 286 kts | 285° |
| 2026-05-05 17:40 | 48.06201 | 16.32504 | 10435 ft | 308 kts | 285° |
| 2026-05-05 17:40 | 48.06920 | 16.29360 | 10591 ft | 331 kts | 286° |
| 2026-05-05 17:41 | 48.07684 | 16.26025 | 10938 ft | 345 kts | 286° |
| 2026-05-05 17:41 | 48.08475 | 16.22603 | 11560 ft | 350 kts | 285° |
| 2026-05-05 17:41 | 48.09272 | 16.19152 | 12253 ft | 352 kts | 286° |
| 2026-05-05 17:41 | 48.10075 | 16.15661 | 12895 ft | 357 kts | 286° |
| 2026-05-05 17:42 | 48.10880 | 16.12139 | 13598 ft | 359 kts | 286° |
| 2026-05-05 17:42 | 48.11690 | 16.08576 | 14164 ft | 364 kts | 285° |
| 2026-05-05 17:42 | 48.12506 | 16.04988 | 14782 ft | 365 kts | 285° |
| 2026-05-05 17:42 | 48.13326 | 16.01371 | 15332 ft | 369 kts | 285° |
| 2026-05-05 17:43 | 48.14151 | 15.97717 | 15937 ft | 372 kts | 285° |
| 2026-05-05 17:43 | 48.14983 | 15.94037 | 16511 ft | 374 kts | 285° |
| 2026-05-05 17:43 | 48.15822 | 15.90328 | 17088 ft | 378 kts | 286° |
| 2026-05-05 17:43 | 48.16671 | 15.86575 | 17638 ft | 382 kts | 285° |
| 2026-05-05 17:44 | 48.17527 | 15.82780 | 18201 ft | 386 kts | 285° |
| 2026-05-05 17:44 | 48.18386 | 15.78951 | 18727 ft | 390 kts | 286° |
| 2026-05-05 17:44 | 48.19253 | 15.75084 | 19282 ft | 393 kts | 286° |
| 2026-05-05 17:44 | 48.20122 | 15.71192 | 19860 ft | 395 kts | 285° |
| 2026-05-05 17:45 | 48.20995 | 15.67278 | 20431 ft | 397 kts | 285° |
| 2026-05-05 17:45 | 48.21874 | 15.63337 | 20956 ft | 400 kts | 285° |
| 2026-05-05 17:45 | 48.22758 | 15.59369 | 21480 ft | 402 kts | 285° |
| 2026-05-05 17:45 | 48.23648 | 15.55374 | 21956 ft | 406 kts | 285° |
| 2026-05-05 17:46 | 48.24545 | 15.51337 | 22400 ft | 410 kts | 286° |
| 2026-05-05 17:46 | 48.25444 | 15.47268 | 22864 ft | 413 kts | 285° |
| 2026-05-05 17:46 | 48.26349 | 15.43163 | 23308 ft | 416 kts | 285° |
| 2026-05-05 17:46 | 48.27261 | 15.39016 | 23642 ft | 420 kts | 286° |
| 2026-05-05 17:47 | 48.28178 | 15.34845 | 24017 ft | 422 kts | 285° |
| 2026-05-05 17:47 | 48.29087 | 15.30702 | 24395 ft | 424 kts | 285° |
| 2026-05-05 17:47 | 48.30013 | 15.26482 | 24775 ft | 426 kts | 285° |
| 2026-05-05 17:47 | 48.30942 | 15.22245 | 25149 ft | 428 kts | 285° |
| 2026-05-05 17:48 | 48.31872 | 15.17991 | 25521 ft | 430 kts | 285° |
| 2026-05-05 17:48 | 48.32806 | 15.13711 | 25854 ft | 433 kts | 285° |
| 2026-05-05 17:48 | 48.33743 | 15.09401 | 26209 ft | 435 kts | 285° |
| 2026-05-05 17:48 | 48.34683 | 15.05066 | 26575 ft | 437 kts | 285° |
| 2026-05-05 17:49 | 48.35623 | 15.00710 | 26933 ft | 439 kts | 285° |
| 2026-05-05 17:49 | 48.36563 | 14.96338 | 27281 ft | 441 kts | 285° |
| 2026-05-05 17:49 | 48.37508 | 14.91943 | 27630 ft | 443 kts | 285° |
| 2026-05-05 17:49 | 48.38458 | 14.87529 | 27979 ft | 444 kts | 285° |
| 2026-05-05 17:50 | 48.39410 | 14.83097 | 28305 ft | 446 kts | 285° |
| 2026-05-05 17:50 | 48.40365 | 14.78651 | 28738 ft | 446 kts | 285° |
| 2026-05-05 17:50 | 48.41316 | 14.74213 | 29258 ft | 444 kts | 285° |
| 2026-05-05 17:50 | 48.42259 | 14.69801 | 29766 ft | 442 kts | 285° |
| 2026-05-05 17:51 | 48.43194 | 14.65398 | 30200 ft | 441 kts | 285° |
| 2026-05-05 17:51 | 48.44123 | 14.61010 | 30629 ft | 439 kts | 285° |
| 2026-05-05 17:51 | 48.45051 | 14.56611 | 31049 ft | 438 kts | 285° |
| 2026-05-05 17:51 | 48.45969 | 14.52267 | 31486 ft | 437 kts | 285° |
| 2026-05-05 17:52 | 48.46887 | 14.47915 | 31921 ft | 435 kts | 285° |
| 2026-05-05 17:52 | 48.47801 | 14.43577 | 32350 ft | 434 kts | 285° |
| 2026-05-05 17:52 | 48.48711 | 14.39248 | 32780 ft | 433 kts | 285° |
| 2026-05-05 17:52 | 48.49614 | 14.34935 | 33253 ft | 430 kts | 285° |
| 2026-05-05 17:53 | 48.50511 | 14.30647 | 33752 ft | 427 kts | 285° |
| 2026-05-05 17:53 | 48.51400 | 14.26391 | 34163 ft | 425 kts | 285° |
| 2026-05-05 17:53 | 48.52286 | 14.22142 | 34532 ft | 423 kts | 285° |
| 2026-05-05 17:53 | 48.53164 | 14.17910 | 34878 ft | 422 kts | 285° |
| 2026-05-05 17:54 | 48.54037 | 14.13690 | 35218 ft | 421 kts | 285° |
| 2026-05-05 17:54 | 48.54895 | 14.09537 | 35549 ft | 420 kts | 285° |
| 2026-05-05 17:54 | 48.55777 | 14.05265 | 35713 ft | 421 kts | 285° |
| 2026-05-05 17:55 | 48.57531 | 13.96749 | 35747 ft | 427 kts | 284° |
| 2026-05-05 17:55 | 48.59289 | 13.88168 | 35737 ft | 428 kts | 284° |
| 2026-05-05 17:56 | 48.61027 | 13.79626 | 35742 ft | 428 kts | 284° |
| 2026-05-05 17:56 | 48.62775 | 13.71021 | 35742 ft | 428 kts | 284° |
| 2026-05-05 17:57 | 48.64516 | 13.62407 | 35745 ft | 429 kts | 285° |
| 2026-05-05 17:57 | 48.67196 | 13.54303 | 35762 ft | 436 kts | 301° |
| 2026-05-05 17:58 | 48.70726 | 13.46747 | 35767 ft | 437 kts | 301° |
| 2026-05-05 17:58 | 48.74216 | 13.39204 | 35766 ft | 437 kts | 301° |
| 2026-05-05 17:59 | 48.77699 | 13.31649 | 35761 ft | 438 kts | 301° |
| 2026-05-05 17:59 | 48.81166 | 13.24117 | 35759 ft | 438 kts | 301° |
| 2026-05-05 18:00 | 48.84647 | 13.16523 | 35785 ft | 439 kts | 301° |
| 2026-05-05 18:00 | 48.88139 | 13.08906 | 35761 ft | 439 kts | 301° |
| 2026-05-05 18:01 | 48.91629 | 13.01277 | 35756 ft | 440 kts | 301° |
| 2026-05-05 18:01 | 48.95108 | 12.93631 | 35754 ft | 440 kts | 301° |
| 2026-05-05 18:02 | 48.98589 | 12.85958 | 35761 ft | 440 kts | 301° |
| 2026-05-05 18:02 | 49.02070 | 12.78277 | 35765 ft | 441 kts | 301° |
| 2026-05-05 18:03 | 49.05541 | 12.70578 | 35762 ft | 441 kts | 301° |
| 2026-05-05 18:03 | 49.09008 | 12.62864 | 35762 ft | 441 kts | 301° |
| 2026-05-05 18:04 | 49.12475 | 12.55136 | 35771 ft | 441 kts | 301° |
| 2026-05-05 18:04 | 49.15941 | 12.47394 | 35774 ft | 442 kts | 301° |
| 2026-05-05 18:05 | 49.19404 | 12.39624 | 35792 ft | 443 kts | 300° |
| 2026-05-05 18:05 | 49.22875 | 12.31826 | 35774 ft | 444 kts | 300° |
| 2026-05-05 18:06 | 49.26320 | 12.24060 | 35774 ft | 444 kts | 300° |
| 2026-05-05 18:06 | 49.29787 | 12.16223 | 35780 ft | 445 kts | 300° |
| 2026-05-05 18:07 | 49.33252 | 12.08371 | 35814 ft | 445 kts | 300° |
| 2026-05-05 18:07 | 49.36713 | 12.00488 | 35783 ft | 446 kts | 300° |
| 2026-05-05 18:08 | 49.40178 | 11.92588 | 35780 ft | 446 kts | 300° |
| 2026-05-05 18:08 | 49.43636 | 11.84664 | 35783 ft | 447 kts | 300° |
| 2026-05-05 18:09 | 49.47098 | 11.76717 | 35776 ft | 447 kts | 300° |
| 2026-05-05 18:09 | 49.50556 | 11.68764 | 35801 ft | 448 kts | 300° |
| 2026-05-05 18:10 | 49.54013 | 11.60777 | 35781 ft | 449 kts | 300° |
| 2026-05-05 18:10 | 49.57336 | 11.52656 | 35778 ft | 446 kts | 293° |
| 2026-05-05 18:11 | 49.60193 | 11.44151 | 35771 ft | 447 kts | 293° |
| 2026-05-05 18:11 | 49.63056 | 11.35637 | 35788 ft | 448 kts | 293° |
| 2026-05-05 18:12 | 49.65917 | 11.27098 | 35801 ft | 448 kts | 294° |
| 2026-05-05 18:12 | 49.68780 | 11.18534 | 35819 ft | 449 kts | 294° |
| 2026-05-05 18:13 | 49.71636 | 11.09937 | 35815 ft | 450 kts | 294° |
| 2026-05-05 18:13 | 49.74486 | 11.01315 | 35820 ft | 451 kts | 294° |
| 2026-05-05 18:14 | 49.77341 | 10.92685 | 35818 ft | 451 kts | 294° |
| 2026-05-05 18:14 | 49.80174 | 10.84088 | 35828 ft | 452 kts | 293° |
| 2026-05-05 18:15 | 49.83026 | 10.75403 | 35819 ft | 453 kts | 293° |
| 2026-05-05 18:15 | 49.85873 | 10.66685 | 35814 ft | 454 kts | 293° |
| 2026-05-05 18:16 | 49.88719 | 10.57938 | 35817 ft | 454 kts | 293° |
| 2026-05-05 18:16 | 49.91098 | 10.50596 | 35821 ft | 455 kts | 293° |
| 2026-05-05 18:17 | 49.93940 | 10.41807 | 35828 ft | 456 kts | 293° |
| 2026-05-05 18:17 | 49.96778 | 10.32992 | 35823 ft | 457 kts | 293° |
| 2026-05-05 18:18 | 49.99185 | 10.23927 | 35819 ft | 453 kts | 285° |
| 2026-05-05 18:18 | 50.01210 | 10.14661 | 35823 ft | 453 kts | 285° |
| 2026-05-05 18:19 | 50.03220 | 10.05333 | 35847 ft | 453 kts | 285° |
| 2026-05-05 18:19 | 50.05199 | 9.96068 | 35824 ft | 454 kts | 284° |
| 2026-05-05 18:20 | 50.07182 | 9.86742 | 35818 ft | 454 kts | 284° |
| 2026-05-05 18:20 | 50.09161 | 9.77397 | 35817 ft | 455 kts | 284° |
| 2026-05-05 18:21 | 50.11131 | 9.68032 | 35817 ft | 455 kts | 284° |
| 2026-05-05 18:21 | 50.13080 | 9.58719 | 35833 ft | 456 kts | 284° |
| 2026-05-05 18:22 | 50.15046 | 9.49324 | 35828 ft | 456 kts | 284° |
| 2026-05-05 18:22 | 50.17013 | 9.39910 | 35827 ft | 457 kts | 284° |
| 2026-05-05 18:23 | 50.18972 | 9.30472 | 35830 ft | 457 kts | 284° |
| 2026-05-05 18:23 | 50.20917 | 9.21023 | 35838 ft | 457 kts | 284° |
| 2026-05-05 18:24 | 50.22852 | 9.11576 | 35848 ft | 458 kts | 284° |
| 2026-05-05 18:24 | 50.24790 | 9.02081 | 35842 ft | 458 kts | 284° |
| 2026-05-05 18:25 | 50.26722 | 8.92598 | 35820 ft | 456 kts | 284° |
| 2026-05-05 18:25 | 50.27368 | 8.89415 | 35535 ft | 454 kts | 284° |
| 2026-05-05 18:25 | 50.28630 | 8.83174 | 34678 ft | 456 kts | 284° |
| 2026-05-05 18:25 | 50.29577 | 8.78460 | 34346 ft | 455 kts | 284° |
| 2026-05-05 18:26 | 50.30530 | 8.73701 | 34057 ft | 461 kts | 284° |
| 2026-05-05 18:26 | 50.31490 | 8.68909 | 33772 ft | 464 kts | 284° |
| 2026-05-05 18:26 | 50.32454 | 8.64078 | 33438 ft | 466 kts | 284° |
| 2026-05-05 18:26 | 50.33419 | 8.59235 | 33098 ft | 466 kts | 284° |
| 2026-05-05 18:27 | 50.34383 | 8.54396 | 32773 ft | 466 kts | 284° |
| 2026-05-05 18:27 | 50.35348 | 8.49555 | 32455 ft | 466 kts | 284° |
| 2026-05-05 18:27 | 50.36312 | 8.44701 | 32137 ft | 467 kts | 284° |
| 2026-05-05 18:27 | 50.37273 | 8.39847 | 31865 ft | 467 kts | 284° |
| 2026-05-05 18:28 | 50.39184 | 8.30113 | 31831 ft | 468 kts | 284° |
| 2026-05-05 18:28 | 50.41094 | 8.20355 | 31824 ft | 469 kts | 284° |
| 2026-05-05 18:29 | 50.42999 | 8.10579 | 31621 ft | 470 kts | 284° |
| 2026-05-05 18:29 | 50.43948 | 8.05678 | 31108 ft | 469 kts | 284° |
| 2026-05-05 18:29 | 50.44893 | 8.00774 | 30605 ft | 470 kts | 284° |
| 2026-05-05 18:30 | 50.45839 | 7.95859 | 30112 ft | 471 kts | 284° |
| 2026-05-05 18:30 | 50.46787 | 7.90939 | 29573 ft | 472 kts | 284° |
| 2026-05-05 18:30 | 50.47738 | 7.86000 | 29029 ft | 472 kts | 285° |
| 2026-05-05 18:30 | 50.48684 | 7.81080 | 28476 ft | 469 kts | 285° |
| 2026-05-05 18:31 | 50.49620 | 7.76193 | 27926 ft | 465 kts | 285° |
| 2026-05-05 18:31 | 50.50544 | 7.71347 | 27392 ft | 461 kts | 284° |
| 2026-05-05 18:31 | 50.51457 | 7.66539 | 26928 ft | 457 kts | 284° |
| 2026-05-05 18:31 | 50.52358 | 7.61781 | 26787 ft | 455 kts | 284° |
| 2026-05-05 18:32 | 50.53260 | 7.57011 | 26821 ft | 455 kts | 284° |
| 2026-05-05 18:32 | 50.54159 | 7.52236 | 26818 ft | 455 kts | 284° |
| 2026-05-05 18:32 | 50.55055 | 7.47463 | 26822 ft | 455 kts | 284° |
| 2026-05-05 18:32 | 50.55709 | 7.42612 | 26830 ft | 453 kts | 276° |
| 2026-05-05 18:33 | 50.55922 | 7.37689 | 26816 ft | 450 kts | 268° |
| 2026-05-05 18:33 | 50.55946 | 7.32767 | 26818 ft | 450 kts | 268° |
| 2026-05-05 18:33 | 50.55977 | 7.27843 | 26819 ft | 450 kts | 268° |
| 2026-05-05 18:33 | 50.56012 | 7.22920 | 26822 ft | 450 kts | 269° |
| 2026-05-05 18:34 | 50.56049 | 7.17999 | 26818 ft | 450 kts | 268° |
| 2026-05-05 18:34 | 50.56045 | 7.13077 | 26819 ft | 450 kts | 267° |
| 2026-05-05 18:34 | 50.55970 | 7.08156 | 26819 ft | 450 kts | 266° |
| 2026-05-05 18:34 | 50.55847 | 7.03245 | 26819 ft | 449 kts | 265° |
| 2026-05-05 18:35 | 50.55702 | 6.98339 | 26817 ft | 449 kts | 265° |
| 2026-05-05 18:35 | 50.55555 | 6.93432 | 26816 ft | 449 kts | 265° |
| 2026-05-05 18:35 | 50.55418 | 6.88521 | 26666 ft | 450 kts | 265° |
| 2026-05-05 18:35 | 50.55292 | 6.83618 | 26408 ft | 448 kts | 266° |
| 2026-05-05 18:36 | 50.55172 | 6.78735 | 26155 ft | 446 kts | 266° |
| 2026-05-05 18:36 | 50.55055 | 6.73877 | 25906 ft | 444 kts | 266° |
| 2026-05-05 18:36 | 50.55078 | 6.69028 | 25652 ft | 444 kts | 273° |
| 2026-05-05 18:36 | 50.55523 | 6.64312 | 25251 ft | 440 kts | 279° |
| 2026-05-05 18:37 | 50.56103 | 6.59605 | 24625 ft | 437 kts | 279° |
| 2026-05-05 18:37 | 50.56678 | 6.54931 | 24017 ft | 434 kts | 279° |
| 2026-05-05 18:37 | 50.57243 | 6.50284 | 23416 ft | 431 kts | 279° |
| 2026-05-05 18:37 | 50.57799 | 6.45660 | 22751 ft | 428 kts | 279° |
| 2026-05-05 18:38 | 50.58346 | 6.41092 | 22188 ft | 422 kts | 279° |
| 2026-05-05 18:38 | 50.58882 | 6.36572 | 21618 ft | 418 kts | 279° |
| 2026-05-05 18:38 | 50.59407 | 6.32102 | 21100 ft | 414 kts | 279° |
| 2026-05-05 18:38 | 50.59929 | 6.27670 | 20573 ft | 410 kts | 279° |
| 2026-05-05 18:39 | 50.60448 | 6.23281 | 20072 ft | 407 kts | 279° |
| 2026-05-05 18:39 | 50.60966 | 6.18919 | 19571 ft | 404 kts | 279° |
| 2026-05-05 18:39 | 50.61477 | 6.14584 | 19084 ft | 401 kts | 279° |
| 2026-05-05 18:39 | 50.61982 | 6.10288 | 18591 ft | 398 kts | 279° |
| 2026-05-05 18:40 | 50.62484 | 6.06003 | 18075 ft | 396 kts | 279° |
| 2026-05-05 18:40 | 50.62981 | 6.01748 | 17511 ft | 393 kts | 279° |
| 2026-05-05 18:40 | 50.63471 | 5.97537 | 16991 ft | 389 kts | 279° |
| 2026-05-05 18:40 | 50.63951 | 5.93366 | 16479 ft | 385 kts | 278° |
| 2026-05-05 18:41 | 50.64423 | 5.89239 | 15936 ft | 381 kts | 279° |
| 2026-05-05 18:41 | 50.64867 | 5.85144 | 15395 ft | 377 kts | 275° |
| 2026-05-05 18:41 | 50.65014 | 5.81053 | 14853 ft | 372 kts | 270° |
| 2026-05-05 18:41 | 50.65101 | 5.76998 | 14321 ft | 369 kts | 270° |
| 2026-05-05 18:42 | 50.65187 | 5.72970 | 13782 ft | 366 kts | 270° |
| 2026-05-05 18:42 | 50.65271 | 5.68970 | 13198 ft | 364 kts | 270° |
| 2026-05-05 18:42 | 50.65354 | 5.65008 | 12657 ft | 360 kts | 270° |
| 2026-05-05 18:42 | 50.65433 | 5.61092 | 12126 ft | 356 kts | 270° |
| 2026-05-05 18:43 | 50.65510 | 5.57215 | 11597 ft | 352 kts | 270° |
| 2026-05-05 18:43 | 50.65585 | 5.53373 | 11064 ft | 350 kts | 270° |
| 2026-05-05 18:43 | 50.65662 | 5.49557 | 10564 ft | 346 kts | 271° |
| 2026-05-05 18:43 | 50.65737 | 5.45841 | 10423 ft | 332 kts | 271° |
| 2026-05-05 18:44 | 50.65809 | 5.42279 | 10299 ft | 319 kts | 271° |
| 2026-05-05 18:44 | 50.65874 | 5.38848 | 10176 ft | 307 kts | 271° |
| 2026-05-05 18:44 | 50.65934 | 5.35538 | 10048 ft | 297 kts | 271° |
| 2026-05-05 18:44 | 50.65992 | 5.32315 | 9833 ft | 291 kts | 271° |
| 2026-05-05 18:45 | 50.66047 | 5.29157 | 9765 ft | 289 kts | 271° |
| 2026-05-05 18:45 | 50.66100 | 5.25974 | 9370 ft | 291 kts | 271° |
| 2026-05-05 18:45 | 50.66154 | 5.22797 | 8983 ft | 290 kts | 271° |
| 2026-05-05 18:45 | 50.66207 | 5.19618 | 8593 ft | 290 kts | 271° |
| 2026-05-05 18:46 | 50.66173 | 5.16456 | 8264 ft | 287 kts | 262° |
| 2026-05-05 18:46 | 50.65717 | 5.13465 | 8072 ft | 274 kts | 249° |
| 2026-05-05 18:46 | 50.64963 | 5.10732 | 7546 ft | 271 kts | 246° |
| 2026-05-05 18:46 | 50.64183 | 5.08018 | 7163 ft | 275 kts | 246° |
| 2026-05-05 18:47 | 50.63398 | 5.05291 | 6765 ft | 273 kts | 246° |
| 2026-05-05 18:47 | 50.62609 | 5.02574 | 6496 ft | 272 kts | 246° |
| 2026-05-05 18:47 | 50.61817 | 4.99862 | 6277 ft | 273 kts | 246° |
| 2026-05-05 18:47 | 50.61032 | 4.97169 | 5974 ft | 274 kts | 246° |
| 2026-05-05 18:48 | 50.60237 | 4.94443 | 5660 ft | 274 kts | 246° |
| 2026-05-05 18:48 | 50.59454 | 4.91762 | 5494 ft | 262 kts | 246° |
| 2026-05-05 18:48 | 50.58711 | 4.89222 | 5155 ft | 253 kts | 246° |
| 2026-05-05 18:48 | 50.57985 | 4.86739 | 4797 ft | 247 kts | 246° |
| 2026-05-05 18:49 | 50.57265 | 4.84287 | 4477 ft | 247 kts | 246° |
| 2026-05-05 18:49 | 50.56533 | 4.81853 | 4316 ft | 245 kts | 246° |
| 2026-05-05 18:49 | 50.55829 | 4.79461 | 4224 ft | 238 kts | 247° |
| 2026-05-05 18:49 | 50.55150 | 4.77094 | 4128 ft | 237 kts | 247° |
| 2026-05-05 18:50 | 50.54476 | 4.74737 | 4004 ft | 237 kts | 246° |
| 2026-05-05 18:50 | 50.53801 | 4.72383 | 3738 ft | 235 kts | 247° |
| 2026-05-05 18:50 | 50.53129 | 4.70041 | 3517 ft | 235 kts | 247° |
| 2026-05-05 18:50 | 50.52462 | 4.67717 | 3298 ft | 231 kts | 247° |
| 2026-05-05 18:51 | 50.51813 | 4.65464 | 3162 ft | 223 kts | 247° |
| 2026-05-05 18:51 | 50.51178 | 4.63255 | 2891 ft | 221 kts | 247° |
| 2026-05-05 18:51 | 50.50555 | 4.61093 | 2634 ft | 211 kts | 248° |
| 2026-05-05 18:51 | 50.49958 | 4.59024 | 2331 ft | 204 kts | 248° |
| 2026-05-05 18:52 | 50.49387 | 4.57047 | 2041 ft | 193 kts | 248° |
| 2026-05-05 18:52 | 50.48857 | 4.55215 | 1807 ft | 175 kts | 249° |
| 2026-05-05 18:52 | 50.48372 | 4.53536 | 1568 ft | 165 kts | 249° |
| 2026-05-05 18:52 | 50.47908 | 4.51929 | 1334 ft | 159 kts | 249° |
| 2026-05-05 18:53 | 50.47456 | 4.50371 | 1113 ft | 155 kts | 248° |
| 2026-05-05 18:53 | 50.47020 | 4.48859 | 855 ft | 149 kts | 249° |
| 2026-05-05 18:53 | 50.46597 | 4.47396 | 673 ft | 149 kts | 249° |
| 2026-05-05 18:53 | 50.46184 | 4.45964 | 593 ft | 130 kts | 246° |
| 2026-05-05 18:54 | 50.45926 | 4.45076 | 593 ft | 46 kts | 246° |
| 2026-05-05 18:54 | 50.45880 | 4.44843 | 597 ft | 14 kts | 301° |
| 2026-05-05 18:54 | 50.45968 | 4.44764 | 596 ft | 15 kts | 343° |
| 2026-05-05 18:54 | 50.46040 | 4.44854 | 597 ft | 15 kts | 66° |
| 2026-05-05 18:55 | 50.46086 | 4.45015 | 596 ft | 17 kts | 65° |
| 2026-05-05 18:55 | 50.46136 | 4.45187 | 599 ft | 17 kts | 65° |
| 2026-05-05 18:55 | 50.46186 | 4.45357 | 599 ft | 18 kts | 65° |
| 2026-05-05 18:55 | 50.46239 | 4.45543 | 600 ft | 19 kts | 65° |
| 2026-05-05 18:56 | 50.46298 | 4.45742 | 597 ft | 21 kts | 65° |
| 2026-05-05 18:56 | 50.46360 | 4.45959 | 596 ft | 23 kts | 65° |
| 2026-05-05 18:56 | 50.46432 | 4.46201 | 591 ft | 26 kts | 65° |
| 2026-05-05 18:56 | 50.46507 | 4.46461 | 589 ft | 27 kts | 65° |
| 2026-05-05 18:57 | 50.46580 | 4.46713 | 591 ft | 22 kts | 65° |
| 2026-05-05 18:57 | 50.46636 | 4.46803 | 591 ft | 10 kts | 355° |
| 2026-05-05 18:57 | 50.46692 | 4.46845 | 590 ft | 10 kts | 64° |
| 2026-05-05 18:57 | 50.46722 | 4.46949 | 589 ft | 11 kts | 65° |
| 2026-05-05 18:58 | 50.46755 | 4.47061 | 588 ft | 11 kts | 65° |
| 2026-05-05 18:58 | 50.46789 | 4.47146 | 588 ft | 7 kts | 22° |
| 2026-05-05 18:58 | 50.46848 | 4.47114 | 585 ft | 6 kts | 335° |
| 2026-05-05 18:58 | 50.46871 | 4.47098 | 585 ft | 1 kts | 335° |
| 2026-05-05 18:59 | 50.46872 | 4.47097 | 585 ft | 0 kts | 335° |